Time;durP1;ratioP1;P1;durP2;ratioP2;P2;SDS_P1;SDS_P2;PMS_P1;PMS_P2;Temp;Humidity;BMP_temperature;BMP_pressure;BME280_temperature;BME280_humidity;BME280_pressure;Samples;Min_cycle;Max_cycle;Signal;HPM_P1;HPM_P2
2020/12/03 00:02:06;;;;;;;37.78;14.80;;;;;;;0.34;45.76;102502.94;4973996;28;20026;-86
2020/12/03 00:04:33;;;;;;;28.23;15.48;;;;;;;1.38;46.22;102700.88;4973829;28;20030;-85
2020/12/03 00:07:03;;;;;;;30.30;14.23;;;;;;;1.73;46.22;102750.50;4990134;28;20480;-86
2020/12/03 00:09:30;;;;;;;22.25;15.68;;;;;;;1.57;46.61;102748.31;4985234;28;20073;-88
2020/12/03 00:12:14;;;;;;;33.80;15.10;;;;;;;1.14;46.36;102654.84;5010745;28;20085;-87
2020/12/03 00:14:41;;;;;;;31.08;15.02;;;;;;;0.20;46.68;102524.13;5000476;28;20018;-87
2020/12/03 00:17:07;;;;;;;26.27;14.55;;;;;;;0.83;47.03;102595.75;4995043;28;20033;-88
2020/12/03 00:19:34;;;;;;;34.20;16.63;;;;;;;0.23;47.43;102548.38;4997243;28;20026;-88
2020/12/03 00:22:02;;;;;;;29.85;14.90;;;;;;;1.58;47.34;102733.66;5015561;28;20026;-87
2020/12/03 00:24:32;;;;;;;34.42;17.10;;;;;;;1.59;47.29;102735.38;4998449;28;20018;-87
2020/12/03 00:27:10;;;;;;;35.53;15.50;;;;;;;1.28;47.08;102680.88;4998154;28;20037;-87
2020/12/03 00:29:37;;;;;;;33.00;15.57;;;;;;;1.33;47.34;102675.84;4997710;28;20435;-88
2020/12/03 00:32:09;;;;;;;34.03;16.83;;;;;;;0.13;47.09;102463.88;5015159;28;20022;-84
2020/12/03 00:34:35;;;;;;;23.73;11.77;;;;;;;1.03;47.52;102640.34;5014524;28;20026;-88
2020/12/03 00:37:02;;;;;;;31.98;16.55;;;;;;;1.86;47.72;102736.56;5014623;28;20038;-87
2020/12/03 00:39:29;;;;;;;31.42;14.50;;;;;;;0.10;47.49;102430.59;5014757;28;20041;-85
2020/12/03 00:41:56;;;;;;;27.70;16.23;;;;;;;1.01;48.79;102622.38;4997062;28;20010;-87
2020/12/03 00:44:24;;;;;;;40.38;17.13;;;;;;;-0.16;49.48;102477.41;4997608;28;20500;-90
2020/12/03 00:46:50;;;;;;;37.25;16.05;;;;;;;1.09;49.35;102637.03;4997019;28;20076;-89
2020/12/03 00:49:19;;;;;;;31.85;16.73;;;;;;;0.32;49.01;102478.56;5014628;28;20041;-87
2020/12/03 00:51:50;;;;;;;31.33;15.05;;;;;;;1.82;49.42;102725.06;4997174;28;20116;-87
2020/12/03 00:54:17;;;;;;;28.52;15.20;;;;;;;1.84;49.28;102703.06;5014358;28;20022;-86
2020/12/03 00:56:47;;;;;;;36.75;17.42;;;;;;;0.66;49.22;102510.91;5014824;28;20128;-86
2020/12/03 00:59:14;;;;;;;34.50;17.60;;;;;;;1.92;49.74;102742.31;4997062;28;20022;-87
2020/12/03 01:01:41;;;;;;;30.45;18.10;;;;;;;1.95;49.88;102746.63;4996911;28;20033;-86
2020/12/03 01:04:07;;;;;;;32.33;15.48;;;;;;;1.59;49.58;102643.41;5014707;28;20455;-86
2020/12/03 01:06:34;;;;;;;38.78;17.63;;;;;;;0.37;48.95;102412.75;4997056;28;20506;-88
2020/12/03 01:09:01;;;;;;;38.15;21.08;;;;;;;1.16;49.22;102546.44;4997158;28;20507;-87
2020/12/03 01:11:28;;;;;;;30.55;15.93;;;;;;;0.95;49.60;102521.00;4998344;28;20026;-86
2020/12/03 01:13:55;;;;;;;37.80;19.40;;;;;;;0.17;48.80;102400.97;5016959;28;20235;-84
2020/12/03 01:16:24;;;;;;;27.50;15.68;;;;;;;-0.56;48.28;102226.00;4998602;28;20026;-87
2020/12/03 01:18:57;;;;;;;30.97;16.43;;;;;;;0.88;48.42;102481.66;5000091;28;20026;-87
2020/12/03 01:21:24;;;;;;;28.33;17.52;;;;;;;0.90;48.32;102485.09;5004495;28;20285;-83
2020/12/03 01:23:51;;;;;;;25.92;15.98;;;;;;;1.01;48.03;102458.72;5023617;28;20024;-84
2020/12/03 01:26:21;;;;;;;33.45;16.20;;;;;;;2.15;47.59;102649.09;5008399;28;20034;-87
2020/12/03 01:28:48;;;;;;;29.80;16.13;;;;;;;2.21;48.88;102701.47;5004463;28;20026;-85
2020/12/03 01:31:15;;;;;;;29.75;14.65;;;;;;;0.29;48.14;102358.13;5016898;28;20108;-88
2020/12/03 01:33:42;;;;;;;31.38;16.85;;;;;;;1.78;48.93;102636.22;5015055;28;20017;-87
2020/12/03 01:36:19;;;;;;;33.28;17.52;;;;;;;0.82;48.97;102531.31;4996369;28;20042;-88
2020/12/03 01:38:46;;;;;;;22.50;14.68;;;;;;;1.53;48.03;102622.13;4995887;28;20041;-87
2020/12/03 01:41:13;;;;;;;31.73;15.80;;;;;;;1.79;48.12;102668.00;4997046;28;20054;-88
2020/12/03 01:43:44;;;;;;;29.40;16.13;;;;;;;1.13;48.38;102536.66;5014074;28;20030;-88
2020/12/03 01:46:11;;;;;;;39.40;15.23;;;;;;;0.99;48.59;102482.53;5013854;28;20053;-85
2020/12/03 01:48:46;;;;;;;30.98;17.20;;;;;;;1.72;47.59;102585.78;5014252;28;20033;-89
2020/12/03 01:51:16;;;;;;;43.05;16.52;;;;;;;1.84;47.09;102608.31;5017915;28;20029;-87
2020/12/03 01:53:43;;;;;;;31.27;16.88;;;;;;;2.50;47.45;102708.75;4999749;28;20057;-86
2020/12/03 01:56:41;;;;;;;30.25;16.45;;;;;;;2.41;47.65;102696.81;4999521;28;20030;-88
2020/12/03 01:59:09;;;;;;;27.67;13.93;;;;;;;1.17;46.44;102561.78;5017413;28;20479;-87
2020/12/03 02:01:40;;;;;;;23.95;11.90;;;;;;;2.14;45.40;102630.97;5017681;28;20117;-85
2020/12/03 02:04:06;;;;;;;;;;;;;;;2.00;43.76;102711.56;5000043;28;20491;-87
2020/12/03 02:06:36;;;;;;;25.95;11.35;;;;;;;1.05;45.09;102544.69;5016977;28;19913;-90
2020/12/03 02:09:03;;;;;;;;;;;;;;;2.38;45.78;102697.97;5016595;28;20053;-86
2020/12/03 02:11:30;;;;;;;28.33;14.40;;;;;;;1.68;45.19;102600.75;4997480;28;20375;-88
2020/12/03 02:14:00;;;;;;;21.25;13.13;;;;;;;1.26;45.88;102603.75;4996107;28;20356;-87
2020/12/03 02:16:30;;;;;;;21.15;11.63;;;;;;;2.00;45.32;102707.94;5013123;28;20103;-89
2020/12/03 02:18:57;;;;;;;26.83;11.90;;;;;;;2.15;45.23;102702.91;5013402;28;20084;-87
2020/12/03 02:21:25;;;;;;;23.10;11.32;;;;;;;1.50;45.25;102585.06;4995754;28;20030;-87
2020/12/03 02:23:52;;;;;;;26.63;12.20;;;;;;;1.46;45.05;102518.13;5012855;28;20033;-85
2020/12/03 02:26:19;;;;;;;34.65;16.45;;;;;;;1.70;45.59;102585.06;4995408;28;20049;-85
2020/12/03 02:28:47;;;;;;;31.17;13.27;;;;;;;2.03;45.21;102663.97;4995053;28;20117;-86
2020/12/03 02:31:14;;;;;;;22.15;11.73;;;;;;;1.49;44.83;102583.34;4995330;28;20026;-87
2020/12/03 02:33:40;;;;;;;22.48;11.90;;;;;;;1.23;45.19;102561.22;4995056;28;20022;-85
2020/12/03 02:36:13;;;;;;;28.50;14.43;;;;;;;1.20;45.42;102550.59;5012720;28;20029;-87
2020/12/03 02:38:39;;;;;;;26.30;14.18;;;;;;;1.02;45.00;102585.91;5012506;28;20539;-89
2020/12/03 02:41:09;;;;;;;28.40;11.02;;;;;;;1.61;42.65;102656.94;5012877;28;20488;-88
2020/12/03 02:43:37;;;;;;;17.10;10.65;;;;;;;2.27;41.67;102696.25;5011317;28;20029;-84
2020/12/03 02:46:04;;;;;;;15.50;8.52;;;;;;;1.67;39.85;102601.75;5011110;28;20041;-87
2020/12/03 02:48:31;;;;;;;16.45;8.45;;;;;;;1.07;39.73;102452.69;5012207;28;20112;-87
2020/12/03 02:50:59;;;;;;;20.60;8.23;;;;;;;1.99;41.06;102687.97;4994345;28;20034;-87
2020/12/03 02:53:25;;;;;;;14.55;5.45;;;;;;;1.41;38.68;102545.00;4994910;28;20029;-87
2020/12/03 02:55:52;;;;;;;14.88;7.22;;;;;;;1.42;38.74;102524.03;5012276;28;20034;-84
2020/12/03 02:58:19;;;;;;;9.63;6.30;;;;;;;2.00;39.15;102672.44;4994424;28;20480;-86
2020/12/03 03:00:46;;;;;;;15.57;8.43;;;;;;;1.46;39.29;102559.06;5012175;28;20022;-87
2020/12/03 03:03:12;;;;;;;15.95;7.40;;;;;;;1.44;40.38;102598.44;5011081;28;20427;-87
2020/12/03 03:05:39;;;;;;;15.23;7.50;;;;;;;2.28;40.58;102680.72;5012176;28;20403;-87
2020/12/03 03:08:06;;;;;;;13.05;6.97;;;;;;;1.23;41.33;102512.97;5012146;28;20030;-86
2020/12/03 03:10:33;;;;;;;18.67;9.32;;;;;;;1.53;41.19;102551.16;4994705;28;20033;-86
2020/12/03 03:12:59;;;;;;;20.75;9.60;;;;;;;1.42;43.48;102644.13;4994935;28;20030;-86
2020/12/03 03:15:26;;;;;;;22.17;8.90;;;;;;;0.78;42.98;102510.81;4994966;28;20092;-87
2020/12/03 03:17:53;;;;;;;14.90;8.00;;;;;;;1.25;42.86;102542.84;5010945;28;20032;-87
2020/12/03 03:20:20;;;;;;;15.35;8.82;;;;;;;1.25;42.75;102473.78;4994637;28;20134;-86
2020/12/03 03:22:47;;;;;;;16.40;8.95;;;;;;;0.99;42.29;102400.69;4994608;28;20506;-85
2020/12/03 03:25:13;;;;;;;13.38;8.40;;;;;;;1.32;42.50;102461.25;5011882;28;20100;-87
2020/12/03 03:27:43;;;;;;;15.95;7.88;;;;;;;1.32;42.70;102456.66;4994010;28;20120;-85
2020/12/03 03:30:10;;;;;;;19.67;10.83;;;;;;;0.87;42.71;102395.41;4994347;28;20030;-86
2020/12/03 03:32:46;;;;;;;21.10;10.55;;;;;;;1.82;43.56;102582.16;5011804;28;20053;-88
2020/12/03 03:35:17;;;;;;;18.35;9.57;;;;;;;2.00;42.66;102634.16;5011557;28;20034;-88
2020/12/03 03:37:44;;;;;;;19.67;9.77;;;;;;;1.39;43.30;102631.63;4994170;28;20038;-86
2020/12/03 03:40:11;;;;;;;23.08;9.10;;;;;;;0.55;44.19;102481.06;5011748;28;20025;-88
2020/12/03 03:42:38;;;;;;;19.85;10.32;;;;;;;1.97;43.37;102602.53;4994580;28;20040;-88
2020/12/03 03:45:07;;;;;;;18.30;11.05;;;;;;;1.33;44.66;102540.28;4994400;28;20350;-87
2020/12/03 03:47:34;;;;;;;23.02;10.75;;;;;;;1.83;43.82;102590.22;4995446;28;20030;-87
2020/12/03 03:50:01;;;;;;;17.67;10.07;;;;;;;2.14;41.98;102606.38;4994658;28;20045;-86
2020/12/03 03:52:31;;;;;;;18.05;10.10;;;;;;;2.24;43.37;102666.50;5011860;28;20094;-89
2020/12/03 03:54:58;;;;;;;19.92;10.63;;;;;;;2.06;43.00;102617.19;5011989;28;20030;-88
2020/12/03 03:57:28;;;;;;;15.85;9.50;;;;;;;1.52;42.63;102493.97;4994759;28;20056;-87
2020/12/03 03:59:55;;;;;;;15.82;8.70;;;;;;;1.96;42.53;102568.03;4994239;28;20483;-88
2020/12/03 04:02:24;;;;;;;19.85;10.30;;;;;;;2.51;42.20;102653.03;4994008;28;20476;-87
2020/12/03 04:04:52;;;;;;;19.63;9.70;;;;;;;2.33;42.77;102635.53;5011545;28;20037;-87
2020/12/03 04:07:19;;;;;;;18.33;10.38;;;;;;;1.46;42.28;102479.91;5012113;28;20045;-88
2020/12/03 04:09:47;;;;;;;16.15;9.10;;;;;;;0.66;41.91;102433.72;5011370;28;20095;-85
2020/12/03 04:12:14;;;;;;;17.35;9.65;;;;;;;1.43;42.43;102533.94;4994503;28;20034;-85
2020/12/03 04:14:41;;;;;;;21.73;9.85;;;;;;;2.07;42.99;102656.31;4994012;28;20034;-88
2020/12/03 04:17:09;;;;;;;18.58;10.95;;;;;;;1.63;42.50;102524.72;4994104;28;20101;-87
2020/12/03 04:19:35;;;;;;;15.30;9.30;;;;;;;0.26;41.94;102270.19;4994091;28;20029;-85
2020/12/03 04:22:02;;;;;;;17.63;9.38;;;;;;;2.31;42.61;102647.63;4994020;28;20061;-90
2020/12/03 04:24:29;;;;;;;21.00;9.60;;;;;;;0.08;42.21;102299.16;4994278;28;20026;-87
2020/12/03 04:26:56;;;;;;;16.38;11.43;;;;;;;0.58;41.86;102388.09;5012888;28;20017;-87
2020/12/03 04:29:22;;;;;;;17.00;9.32;;;;;;;0.87;42.34;102417.22;4994843;28;20034;-86
2020/12/03 04:31:49;;;;;;;18.73;9.95;;;;;;;0.54;41.94;102359.41;4994200;28;20038;-86
2020/12/03 04:34:16;;;;;;;16.88;8.73;;;;;;;1.75;42.11;102581.88;5011241;28;20519;-84
2020/12/03 04:36:46;;;;;;;20.50;11.32;;;;;;;1.09;42.40;102435.13;5011086;28;20140;-86
2020/12/03 04:39:13;;;;;;;18.52;10.15;;;;;;;0.47;42.05;102301.03;4993514;28;20042;-86
2020/12/03 04:41:40;;;;;;;15.05;9.38;;;;;;;1.55;40.87;102493.69;5010046;28;20040;-85
2020/12/03 04:44:17;;;;;;;11.85;7.20;;;;;;;1.60;41.13;102555.03;5010207;28;20029;-86
2020/12/03 04:46:51;;;;;;;22.25;10.25;;;;;;;1.91;41.78;102543.06;5011113;28;20061;-86
2020/12/03 04:49:27;;;;;;;20.92;10.05;;;;;;;2.19;42.02;102623.22;5009592;28;20070;-87
2020/12/03 04:52:24;;;;;;;22.02;9.18;;;;;;;2.42;42.34;102614.66;4993756;28;20483;-87
2020/12/03 04:54:57;;;;;;;20.05;9.52;;;;;;;2.27;41.36;102618.88;4993345;28;20026;-87
2020/12/03 04:57:59;;;;;;;15.77;8.98;;;;;;;2.53;41.24;102613.59;5010584;28;21180;-87
2020/12/03 05:00:37;;;;;;;18.60;9.02;;;;;;;2.63;41.02;102612.69;4963882;28;20062;-86
2020/12/03 05:03:14;;;;;;;20.00;10.82;;;;;;;2.11;36.22;102499.25;4995387;28;20033;-91
2020/12/03 05:06:19;;;;;;;17.75;8.80;;;;;;;1.85;37.86;102478.09;4996941;28;20072;-85
2020/12/03 05:09:07;;;;;;;21.20;8.48;;;;;;;2.52;35.44;102605.53;4981527;28;20050;-91
2020/12/03 05:11:59;;;;;;;19.60;10.10;;;;;;;2.16;35.86;102518.81;4978301;28;20117;-91
2020/12/03 05:14:29;;;;;;;17.35;7.68;;;;;;;2.37;34.64;102606.03;4997824;28;20061;-91
2020/12/03 05:17:14;;;;;;;14.63;8.95;;;;;;;2.09;34.97;102521.28;4990117;28;20037;-90
2020/12/03 05:19:47;;;;;;;15.65;8.43;;;;;;;2.28;34.02;102527.66;4992164;28;20510;-90
2020/12/03 05:22:21;;;;;;;15.45;8.10;;;;;;;2.36;33.97;102541.44;4997469;28;20026;-89
2020/12/03 05:24:48;;;;;;;11.85;7.43;;;;;;;2.49;34.49;102611.31;4993577;28;20503;-91
2020/12/03 05:27:28;;;;;;;14.10;8.43;;;;;;;0.37;35.38;102310.06;4979162;28;20083;-93
2020/12/03 05:30:06;;;;;;;19.17;8.40;;;;;;;1.73;34.87;102497.38;4979210;28;20041;-91
2020/12/03 05:32:35;;;;;;;17.80;8.85;;;;;;;2.35;33.80;102594.38;4978612;28;20061;-93
2020/12/03 05:35:09;;;;;;;15.38;9.20;;;;;;;1.74;33.84;102500.97;4978696;28;20476;-89
2020/12/03 05:37:39;;;;;;;12.88;7.60;;;;;;;2.68;33.67;102605.75;4993304;28;20096;-90
2020/12/03 05:40:22;;;;;;;20.05;8.73;;;;;;;1.13;34.66;102325.75;5010847;28;20033;-90
2020/12/03 05:42:50;;;;;;;11.25;7.28;;;;;;;1.67;34.20;102506.19;4998353;28;20038;-90
2020/12/03 05:45:22;;;;;;;24.83;9.30;;;;;;;1.32;34.19;102369.31;4997351;28;20032;-92
2020/12/03 05:47:52;;;;;;;16.80;9.35;;;;;;;2.42;33.78;102508.03;5002472;28;20103;-88
2020/12/03 05:50:35;;;;;;;17.33;10.13;;;;;;;2.24;33.86;102509.81;5002901;28;20031;-89
2020/12/03 05:53:17;;;;;;;16.77;9.18;;;;;;;2.81;33.29;102564.38;4977956;28;20117;-91
2020/12/03 05:55:46;;;;;;;20.48;8.90;;;;;;;2.95;33.95;102592.22;4973227;28;20719;-86
2020/12/03 05:58:28;;;;;;;18.25;8.98;;;;;;;2.00;34.76;102509.38;5008048;28;20038;-86
2020/12/03 06:01:05;;;;;;;16.33;10.00;;;;;;;2.32;34.86;102560.00;5012630;28;20083;-83
2020/12/03 06:03:52;;;;;;;18.42;9.27;;;;;;;2.51;34.25;102591.03;4994824;28;20030;-85
2020/12/03 06:06:39;;;;;;;20.23;9.85;;;;;;;2.35;35.71;102591.66;4994647;28;20030;-86
2020/12/03 06:09:18;;;;;;;14.05;9.30;;;;;;;2.27;34.64;102597.84;5005929;28;20026;-90
2020/12/03 06:12:17;;;;;;;17.83;10.02;;;;;;;2.45;35.07;102608.03;4975745;28;20030;-86
2020/12/03 06:14:52;;;;;;;16.50;9.00;;;;;;;2.32;34.50;102605.63;4975212;28;20030;-84
2020/12/03 06:17:22;;;;;;;16.08;9.55;;;;;;;2.41;33.88;102603.84;4991967;28;20481;-85
2020/12/03 06:20:14;;;;;;;13.07;7.53;;;;;;;0.71;35.43;102384.22;4993063;28;20026;-83
2020/12/03 06:22:53;;;;;;;19.88;8.75;;;;;;;2.14;34.99;102608.28;4975795;28;20030;-88
2020/12/03 06:25:35;;;;;;;15.38;9.45;;;;;;;2.01;36.88;102560.28;4976086;28;20038;-87
2020/12/03 06:28:28;;;;;;;26.02;10.60;;;;;;;2.43;37.45;102601.81;4975907;28;20030;-87
2020/12/03 06:31:31;;;;;;;19.23;10.52;;;;;;;0.76;38.34;102347.34;4974954;28;20041;-87
2020/12/03 06:34:23;;;;;;;14.65;9.43;;;;;;;2.03;39.24;102607.41;4974225;28;20058;-88
2020/12/03 06:37:01;;;;;;;18.58;10.13;;;;;;;2.24;39.04;102605.50;4979047;28;20046;-88
2020/12/03 06:39:40;;;;;;;17.70;8.77;;;;;;;2.31;38.15;102604.75;4985763;28;20029;-89
2020/12/03 06:42:43;;;;;;;;;;;;;;;;;;;;;
2020/12/03 06:45:10;;;;;;;13.77;8.05;;;;;;;2.24;39.02;102600.91;4998120;28;20025;-88
2020/12/03 06:47:40;;;;;;;18.90;12.00;;;;;;;2.27;38.68;102606.06;4985858;28;20137;-88
2020/12/03 06:50:28;;;;;;;21.75;9.88;;;;;;;2.13;37.39;102615.59;5000564;28;20033;-89
2020/12/03 06:53:19;;;;;;;15.50;8.15;;;;;;;0.92;37.91;102414.94;4975142;28;20488;-88
2020/12/03 06:55:48;;;;;;;;;;;;;;;2.15;37.80;102620.94;4981480;28;20555;-87
2020/12/03 06:58:51;;;;;;;17.98;9.40;;;;;;;2.01;37.46;102620.38;4984807;28;19913;-89
2020/12/03 07:02:05;;;;;;;14.00;7.93;;;;;;;1.09;37.60;102448.78;4988265;28;20030;-89
2020/12/03 07:04:47;;;;;;;26.50;8.38;;;;;;;2.01;38.34;102614.91;4976583;28;20041;-92
2020/12/03 07:07:29;;;;;;;15.25;8.23;;;;;;;2.03;37.79;102601.97;4977008;28;20514;-88
2020/12/03 07:10:30;;;;;;;14.30;9.73;;;;;;;2.18;37.74;102615.16;4991493;28;20034;-86
2020/12/03 07:13:24;;;;;;;18.40;9.75;;;;;;;2.15;37.99;102618.19;4990242;28;20412;-86
2020/12/03 07:16:21;;;;;;;22.65;9.90;;;;;;;2.36;37.25;102630.81;5008176;28;20034;-90
2020/12/03 07:19:06;;;;;;;16.48;7.97;;;;;;;2.45;37.60;102622.53;5005614;28;20036;-92
2020/12/03 07:22:10;;;;;;;12.60;7.32;;;;;;;2.43;36.52;102620.97;4988359;28;20085;-92
2020/12/03 07:24:40;;;;;;;12.50;6.72;;;;;;;2.48;37.02;102615.91;4993462;28;20033;-92
2020/12/03 07:27:08;;;;;;;14.25;7.60;;;;;;;2.42;37.85;102619.25;4980687;28;20030;-87
2020/12/03 07:29:38;;;;;;;14.07;8.68;;;;;;;2.26;39.51;102618.00;4986963;28;20104;-83
2020/12/03 07:32:16;;;;;;;21.30;8.98;;;;;;;2.25;40.92;102629.94;4977556;28;20042;-86
2020/12/03 07:35:02;;;;;;;17.88;8.35;;;;;;;0.70;41.04;102418.81;4978815;28;20038;-83
2020/12/03 07:37:46;;;;;;;10.75;7.00;;;;;;;0.00;40.71;102324.41;4978457;28;20054;-95
2020/12/03 07:40:19;;;;;;;13.73;7.15;;;;;;;1.73;40.68;102638.53;4981463;28;20038;-92
2020/12/03 07:42:47;;;;;;;12.30;7.10;;;;;;;1.44;40.25;102562.94;4988725;28;20034;-92
2020/12/03 07:45:49;;;;;;;14.07;7.00;;;;;;;0.53;40.20;102379.47;5013225;28;20049;-96
2020/12/03 07:48:18;;;;;;;18.05;7.40;;;;;;;1.66;41.18;102580.88;4965296;28;20046;-95
2020/12/03 07:50:51;;;;;;;14.43;7.20;;;;;;;1.70;40.75;102571.41;4985793;28;20029;-93
2020/12/03 07:53:33;;;;;;;15.27;9.45;;;;;;;-1.39;41.28;102082.94;5005086;28;20077;-95
2020/12/03 07:56:26;;;;;;;19.58;7.90;;;;;;;0.16;41.97;102342.03;4985176;28;20062;-96
2020/12/03 07:58:54;;;;;;;15.10;7.57;;;;;;;0.01;41.47;102317.94;4993930;28;20038;-96
2020/12/03 08:01:29;;;;;;;11.65;6.32;;;;;;;1.84;41.85;102673.88;4989134;28;20025;-96
2020/12/03 08:04:19;;;;;;;13.20;8.63;;;;;;;-1.37;41.78;102146.16;4981443;28;20026;-96
2020/12/03 08:07:29;;;;;;;9.47;5.80;;;;;;;-1.17;42.81;102208.75;4974566;28;20061;-95
2020/12/03 08:09:56;;;;;;;14.68;8.27;;;;;;;1.87;42.48;102697.31;5042787;23;20055;-91
2020/12/03 08:12:25;;;;;;;12.75;7.53;;;;;;;0.02;43.63;102414.97;4991989;28;20034;-93
2020/12/03 08:14:57;;;;;;;11.73;6.43;;;;;;;1.93;42.62;102661.22;4970338;28;20522;-90
2020/12/03 08:17:23;;;;;;;18.40;7.90;;;;;;;1.77;43.34;102670.88;4989601;28;20046;-91
2020/12/03 08:20:02;;;;;;;16.27;8.20;;;;;;;1.68;43.51;102655.34;4982271;28;20022;-90
2020/12/03 08:22:33;;;;;;;15.10;7.82;;;;;;;0.95;43.53;102536.53;4981627;28;20042;-89
2020/12/03 08:25:03;;;;;;;16.63;7.70;;;;;;;-0.29;44.33;102371.47;4996136;28;20151;-90
2020/12/03 08:27:30;;;;;;;14.55;9.77;;;;;;;0.91;42.90;102600.53;4978052;28;20030;-89
2020/12/03 08:29:56;;;;;;;10.68;6.35;;;;;;;1.48;43.24;102687.22;4982140;28;20424;-89
2020/12/03 08:32:23;;;;;;;14.50;7.15;;;;;;;1.74;43.10;102671.13;4985289;28;20026;-89
2020/12/03 08:34:49;;;;;;;12.43;7.28;;;;;;;1.63;43.09;102704.06;4980308;28;20026;-90
2020/12/03 08:37:24;;;;;;;12.60;7.03;;;;;;;1.19;43.24;102617.94;4995831;28;20089;-90
2020/12/03 08:39:53;;;;;;;18.02;7.72;;;;;;;1.44;43.15;102637.53;4984140;28;20124;-93
2020/12/03 08:42:20;;;;;;;9.15;4.72;;;;;;;1.34;42.77;102623.00;4998883;28;20031;-89
2020/12/03 08:44:50;;;;;;;11.18;4.97;;;;;;;1.74;42.86;102667.56;4977303;28;20056;-94
2020/12/03 08:47:41;;;;;;;10.43;5.88;;;;;;;1.81;42.61;102667.84;4978368;28;20026;-89
2020/12/03 08:50:15;;;;;;;12.23;6.97;;;;;;;1.71;42.90;102671.44;4977207;28;20093;-89
2020/12/03 08:52:43;;;;;;;10.70;5.90;;;;;;;0.14;43.27;102426.63;4995011;28;20124;-91
2020/12/03 08:55:11;;;;;;;11.95;6.22;;;;;;;1.58;43.04;102681.78;4978944;28;20030;-89
2020/12/03 08:57:44;;;;;;;13.82;5.85;;;;;;;1.42;42.94;102649.59;4980907;28;20022;-88
2020/12/03 09:00:17;;;;;;;11.57;5.28;;;;;;;1.66;42.50;102681.91;4980433;28;20037;-95
2020/12/03 09:02:45;;;;;;;11.00;5.30;;;;;;;1.34;42.93;102648.44;4999398;28;20100;-95
2020/12/03 09:05:25;;;;;;;9.55;5.40;;;;;;;-1.08;42.80;102277.75;4992478;28;20037;-90
2020/12/03 09:07:57;;;;;;;6.40;3.43;;;;;;;1.61;40.45;102704.19;4999097;28;20025;-96
2020/12/03 09:10:32;;;;;;;6.85;4.40;;;;;;;-0.10;40.45;102395.16;5000396;28;20388;-90
2020/12/03 09:13:03;;;;;;;9.35;4.90;;;;;;;-0.16;41.25;102371.22;5144025;23;20051;-91
2020/12/03 09:15:30;;;;;;;8.65;4.32;;;;;;;1.87;40.16;102690.00;5379724;23;20082;-93
2020/12/03 09:17:59;;;;;;;12.02;4.97;;;;;;;1.05;40.46;102602.84;4992576;28;20039;-92
2020/12/03 09:20:26;;;;;;;9.60;3.88;;;;;;;1.68;40.70;102714.56;4968579;28;20019;-96
2020/12/03 09:22:53;;;;;;;6.53;3.42;;;;;;;0.19;39.83;102410.72;4973136;28;20038;-93
2020/12/03 09:25:23;;;;;;;8.32;3.72;;;;;;;1.18;40.26;102569.84;4973115;28;20030;-87
2020/12/03 09:27:50;;;;;;;8.43;4.80;;;;;;;1.83;40.22;102676.78;4975715;28;20045;-87
2020/12/03 09:30:24;;;;;;;6.88;4.70;;;;;;;-0.37;40.30;102334.03;4982562;28;20061;-90
2020/12/03 09:33:01;;;;;;;9.20;4.65;;;;;;;1.76;40.38;102707.38;4962253;28;20043;-88
2020/12/03 09:35:33;;;;;;;7.55;3.95;;;;;;;0.17;40.97;102417.31;5006906;28;20057;-95
2020/12/03 09:38:08;;;;;;;10.02;4.97;;;;;;;1.11;41.03;102565.97;4983225;28;20027;-86
2020/12/03 09:40:37;;;;;;;9.60;4.65;;;;;;;0.82;41.08;102539.50;4974911;28;20034;-85
2020/12/03 09:43:08;;;;;;;7.25;4.10;;;;;;;1.61;41.20;102697.88;4985882;28;20109;-95
2020/12/03 09:45:38;;;;;;;10.05;4.90;;;;;;;0.62;41.19;102527.69;4945691;29;20485;-92
2020/12/03 09:48:16;;;;;;;9.88;5.75;;;;;;;1.35;41.45;102641.97;4964390;28;20037;-92
2020/12/03 09:50:49;;;;;;;6.65;3.58;;;;;;;1.68;41.14;102742.75;4961444;28;20069;-94
2020/12/03 09:53:18;;;;;;;9.05;4.95;;;;;;;0.53;41.04;102567.53;4980534;28;20077;-96
2020/12/03 09:55:46;;;;;;;7.70;5.10;;;;;;;-1.15;40.54;102302.75;4965269;28;20034;-95
2020/12/03 09:58:20;;;;;;;10.38;4.80;;;;;;;0.04;40.69;102448.38;4992657;28;20096;-90
2020/12/03 10:00:53;;;;;;;8.95;5.30;;;;;;;1.38;41.20;102732.75;4978252;28;20053;-94
2020/12/03 10:04:14;;;;;;;9.38;4.40;;;;;;;-1.21;41.17;102292.41;4977336;28;20031;-93
2020/12/03 10:06:59;;;;;;;10.27;3.60;;;;;;;-0.28;40.53;102425.75;4972503;28;20046;-91
2020/12/03 10:10:07;;;;;;;10.43;5.50;;;;;;;0.32;40.66;102533.06;4991583;28;20039;-89
2020/12/03 10:13:06;;;;;;;8.32;4.50;;;;;;;0.97;40.61;102616.34;4967193;28;20452;-90
2020/12/03 10:16:10;;;;;;;8.13;5.25;;;;;;;1.55;41.02;102717.56;4990700;28;20061;-91
2020/12/03 10:19:03;;;;;;;12.52;4.05;;;;;;;-0.33;40.20;102416.28;4995997;28;20038;-91
2020/12/03 10:21:35;;;;;;;9.07;4.75;;;;;;;0.65;40.11;102552.81;4981488;28;20102;-88
2020/12/03 10:24:22;;;;;;;14.30;4.38;;;;;;;-0.30;40.42;102465.00;4978005;28;20021;-87
2020/12/03 10:27:09;;;;;;;7.38;4.30;;;;;;;-0.39;40.16;102419.53;4995651;28;20034;-93
2020/12/03 10:29:57;;;;;;;11.07;5.57;;;;;;;0.55;40.67;102609.19;5014416;28;20068;-95
2020/12/03 10:32:25;;;;;;;6.43;4.72;;;;;;;1.18;40.99;102719.06;4997405;28;20034;-96
2020/12/03 10:34:53;;;;;;;6.85;4.28;;;;;;;0.83;40.98;102642.13;4998655;28;20018;-93
2020/12/03 10:37:32;;;;;;;7.30;4.25;;;;;;;0.19;40.69;102535.16;4981807;28;20039;-92
2020/12/03 10:40:09;;;;;;;8.98;4.60;;;;;;;-0.18;40.99;102472.06;4992505;28;20037;-95
2020/12/03 10:42:44;;;;;;;9.40;4.40;;;;;;;0.63;40.76;102613.94;4990581;28;20029;-95
2020/12/03 10:45:18;;;;;;;9.93;4.75;;;;;;;-0.26;40.95;102482.78;4982863;28;20031;-89
2020/12/03 10:47:57;;;;;;;7.43;4.28;;;;;;;1.19;40.76;102712.59;5000232;28;20034;-90
2020/12/03 10:50:47;;;;;;;8.70;4.38;;;;;;;0.89;40.95;102657.94;4989371;28;20049;-91
2020/12/03 10:53:19;;;;;;;13.82;5.68;;;;;;;1.18;41.12;102714.47;5001155;28;20166;-90
2020/12/03 10:56:08;;;;;;;8.23;5.05;;;;;;;0.44;40.94;102585.59;4984126;28;20029;-88
2020/12/03 10:58:53;;;;;;;12.32;5.10;;;;;;;0.51;41.15;102608.59;4972144;28;20392;-90
2020/12/03 11:01:28;;;;;;;8.00;4.38;;;;;;;-0.31;40.99;102474.16;4981695;28;20064;-95
2020/12/03 11:04:09;;;;;;;7.15;4.85;;;;;;;0.52;40.14;102606.72;4976382;28;20463;-94
2020/12/03 11:06:36;;;;;;;13.98;5.05;;;;;;;0.06;40.51;102546.28;4994627;28;20318;-90
2020/12/03 11:09:05;;;;;;;12.35;4.75;;;;;;;1.06;40.56;102729.19;4983650;28;20034;-93
2020/12/03 11:11:37;;;;;;;6.25;3.90;;;;;;;0.95;40.62;102711.94;4981941;28;20097;-94
2020/12/03 11:14:11;;;;;;;11.45;5.07;;;;;;;0.95;41.25;102746.56;4980235;28;20117;-90
2020/12/03 11:16:44;;;;;;;9.60;4.70;;;;;;;0.34;41.44;102637.34;4997192;28;20046;-91
2020/12/03 11:19:15;;;;;;;11.15;6.82;;;;;;;0.84;42.22;102725.69;4976304;28;20030;-93
2020/12/03 11:22:09;;;;;;;10.13;5.32;;;;;;;0.93;42.71;102745.81;4996970;28;20172;-96
2020/12/03 11:24:48;;;;;;;11.10;5.97;;;;;;;-0.81;42.55;102473.00;4978549;28;20097;-90
2020/12/03 11:27:20;;;;;;;10.68;6.10;;;;;;;0.58;43.11;102720.66;4969322;28;20049;-91
2020/12/03 11:29:49;;;;;;;16.73;6.18;;;;;;;0.45;44.01;102706.38;4989052;28;20046;-92
2020/12/03 11:32:28;;;;;;;12.80;5.68;;;;;;;0.90;44.28;102763.31;4967958;28;20029;-91
2020/12/03 11:34:55;;;;;;;9.90;5.38;;;;;;;0.03;44.13;102603.75;4971615;28;20480;-90
2020/12/03 11:37:24;;;;;;;10.50;5.55;;;;;;;0.85;44.72;102749.22;4974709;28;20061;-92
2020/12/03 11:40:03;;;;;;;10.25;6.30;;;;;;;-0.13;45.52;102604.22;4975573;28;20023;-93
2020/12/03 11:42:51;;;;;;;10.82;6.07;;;;;;;0.66;45.90;102780.81;4982902;28;20038;-91
2020/12/03 11:48:08;;;;;;;12.07;6.35;;;;;;;0.84;45.46;102752.97;4988051;28;20031;-92
2020/12/03 11:50:39;;;;;;;12.75;5.80;;;;;;;-0.46;46.04;102572.47;4976356;28;20058;-92
2020/12/03 11:53:06;;;;;;;9.30;5.47;;;;;;;0.36;45.64;102736.16;4972644;28;20026;-90
2020/12/03 11:55:39;;;;;;;17.80;7.90;;;;;;;0.70;44.52;102789.59;5002338;28;20037;-90
2020/12/03 11:58:10;;;;;;;14.32;7.78;;;;;;;-0.51;45.48;102582.03;4999898;28;20041;-94
2020/12/03 12:00:37;;;;;;;19.88;7.47;;;;;;;0.59;45.81;102754.25;4979519;28;20034;-92